sensor_id;sensor_type;location;lat;lon;timestamp;P1;durP1;ratioP1;P2;durP2;ratioP2
75890;SDS011;64571;47.512;19.054;2022-10-22T15:32:56;20.02;;;12.15;;
75890;SDS011;64571;47.512;19.054;2022-10-22T15:37:49;24.52;;;12.32;;
75890;SDS011;64571;47.512;19.054;2022-10-22T15:41:18;22.83;;;11.98;;
75890;SDS011;64571;47.512;19.054;2022-10-22T15:44:21;20.77;;;11.10;;
75890;SDS011;64571;47.512;19.054;2022-10-22T15:47:26;18.05;;;11.00;;
75890;SDS011;64571;47.512;19.054;2022-10-22T15:50:30;19.30;;;11.90;;
75890;SDS011;64571;47.512;19.054;2022-10-22T15:53:33;21.50;;;12.33;;
75890;SDS011;64571;47.512;19.054;2022-10-22T15:56:35;20.73;;;12.00;;
75890;SDS011;64571;47.512;19.054;2022-10-22T15:59:38;19.95;;;12.82;;
75890;SDS011;64571;47.512;19.054;2022-10-22T16:02:40;22.35;;;12.85;;
75890;SDS011;64571;47.512;19.054;2022-10-22T16:05:52;19.62;;;13.02;;
75890;SDS011;64571;47.512;19.054;2022-10-22T16:08:55;21.83;;;13.07;;
75890;SDS011;64571;47.512;19.054;2022-10-22T16:12:00;23.62;;;13.25;;
75890;SDS011;64571;47.512;19.054;2022-10-22T16:15:02;23.87;;;13.35;;
75890;SDS011;64571;47.512;19.054;2022-10-22T16:18:05;23.55;;;13.90;;
75890;SDS011;64571;47.512;19.054;2022-10-22T16:21:10;24.45;;;14.68;;
75890;SDS011;64571;47.512;19.054;2022-10-22T16:24:14;27.37;;;13.97;;
75890;SDS011;64571;47.512;19.054;2022-10-22T16:27:17;22.52;;;13.98;;
75890;SDS011;64571;47.512;19.054;2022-10-22T16:30:20;24.67;;;15.20;;
75890;SDS011;64571;47.512;19.054;2022-10-22T16:33:22;25.20;;;15.25;;
75890;SDS011;64571;47.512;19.054;2022-10-22T16:36:25;23.27;;;14.65;;
75890;SDS011;64571;47.512;19.054;2022-10-22T16:39:27;27.00;;;13.50;;
75890;SDS011;64571;47.512;19.054;2022-10-22T16:42:30;24.75;;;14.10;;
75890;SDS011;64571;47.512;19.054;2022-10-22T16:45:32;23.40;;;14.32;;
75890;SDS011;64571;47.512;19.054;2022-10-22T16:48:34;25.50;;;14.65;;
75890;SDS011;64571;47.512;19.054;2022-10-22T16:51:41;25.95;;;15.50;;
75890;SDS011;64571;47.512;19.054;2022-10-22T16:54:43;24.47;;;15.40;;
75890;SDS011;64571;47.512;19.054;2022-10-22T16:57:50;30.33;;;15.80;;
75890;SDS011;64571;47.512;19.054;2022-10-22T17:00:53;35.00;;;20.33;;
75890;SDS011;64571;47.512;19.054;2022-10-22T17:03:58;35.63;;;16.40;;
75890;SDS011;64571;47.512;19.054;2022-10-22T17:07:01;28.20;;;16.73;;
75890;SDS011;64571;47.512;19.054;2022-10-22T17:10:04;24.90;;;14.83;;
75890;SDS011;64571;47.512;19.054;2022-10-22T17:13:07;29.25;;;15.77;;
75890;SDS011;64571;47.512;19.054;2022-10-22T17:16:10;29.33;;;17.23;;
75890;SDS011;64571;47.512;19.054;2022-10-22T17:19:15;27.17;;;15.20;;
75890;SDS011;64571;47.512;19.054;2022-10-22T17:22:17;26.37;;;15.70;;
75890;SDS011;64571;47.512;19.054;2022-10-22T17:25:55;28.17;;;15.63;;
75890;SDS011;64571;47.512;19.054;2022-10-22T17:28:48;26.55;;;14.55;;
75890;SDS011;64571;47.512;19.054;2022-10-22T17:31:51;24.58;;;13.45;;
75890;SDS011;64571;47.512;19.054;2022-10-22T17:34:54;26.77;;;15.77;;
75890;SDS011;64571;47.512;19.054;2022-10-22T17:37:56;24.05;;;15.35;;
75890;SDS011;64571;47.512;19.054;2022-10-22T17:40:58;31.47;;;16.40;;
75890;SDS011;64571;47.512;19.054;2022-10-22T17:44:07;27.15;;;17.33;;
75890;SDS011;64571;47.512;19.054;2022-10-22T17:47:13;25.42;;;15.75;;
75890;SDS011;64571;47.512;19.054;2022-10-22T17:50:16;28.58;;;16.02;;
75890;SDS011;64571;47.512;19.054;2022-10-22T17:53:19;28.87;;;16.73;;
75890;SDS011;64571;47.512;19.054;2022-10-22T17:56:26;26.37;;;14.37;;
75890;SDS011;64571;47.512;19.054;2022-10-22T17:59:30;23.58;;;14.32;;
75890;SDS011;64571;47.512;19.054;2022-10-22T18:02:33;25.85;;;15.00;;
75890;SDS011;64571;47.512;19.054;2022-10-22T18:05:36;22.85;;;14.23;;
75890;SDS011;64571;47.512;19.054;2022-10-22T18:08:38;24.50;;;15.63;;
75890;SDS011;64571;47.512;19.054;2022-10-22T18:11:41;25.77;;;14.50;;
75890;SDS011;64571;47.512;19.054;2022-10-22T18:14:44;22.83;;;14.68;;
75890;SDS011;64571;47.512;19.054;2022-10-22T18:17:48;29.52;;;16.85;;
75890;SDS011;64571;47.512;19.054;2022-10-22T18:20:51;23.15;;;14.43;;
75890;SDS011;64571;47.512;19.054;2022-10-22T18:23:55;23.58;;;14.70;;
75890;SDS011;64571;47.512;19.054;2022-10-22T18:26:59;22.27;;;14.87;;
75890;SDS011;64571;47.512;19.054;2022-10-22T18:30:02;27.40;;;16.85;;
75890;SDS011;64571;47.512;19.054;2022-10-22T18:33:05;24.45;;;15.07;;
75890;SDS011;64571;47.512;19.054;2022-10-22T18:36:09;29.10;;;16.62;;
75890;SDS011;64571;47.512;19.054;2022-10-22T18:39:13;26.77;;;16.50;;
75890;SDS011;64571;47.512;19.054;2022-10-22T18:42:16;26.87;;;16.37;;
75890;SDS011;64571;47.512;19.054;2022-10-22T18:45:18;24.92;;;16.58;;
75890;SDS011;64571;47.512;19.054;2022-10-22T18:48:21;27.58;;;16.80;;
75890;SDS011;64571;47.512;19.054;2022-10-22T18:51:26;26.40;;;17.25;;
75890;SDS011;64571;47.512;19.054;2022-10-22T18:54:32;25.40;;;16.25;;
75890;SDS011;64571;47.512;19.054;2022-10-22T18:57:34;28.77;;;17.57;;
75890;SDS011;64571;47.512;19.054;2022-10-22T19:00:37;26.58;;;16.35;;
75890;SDS011;64571;47.512;19.054;2022-10-22T19:03:39;29.67;;;17.55;;
75890;SDS011;64571;47.512;19.054;2022-10-22T19:06:42;28.77;;;17.95;;
75890;SDS011;64571;47.512;19.054;2022-10-22T19:09:46;29.00;;;17.02;;
75890;SDS011;64571;47.512;19.054;2022-10-22T19:12:49;28.90;;;18.30;;
75890;SDS011;64571;47.512;19.054;2022-10-22T19:15:51;30.48;;;17.65;;
75890;SDS011;64571;47.512;19.054;2022-10-22T19:18:59;29.02;;;17.95;;
75890;SDS011;64571;47.512;19.054;2022-10-22T19:22:03;31.65;;;17.40;;
75890;SDS011;64571;47.512;19.054;2022-10-22T19:25:06;29.08;;;17.48;;
75890;SDS011;64571;47.512;19.054;2022-10-22T19:28:12;30.87;;;18.23;;
75890;SDS011;64571;47.512;19.054;2022-10-22T19:31:16;31.08;;;18.55;;
75890;SDS011;64571;47.512;19.054;2022-10-22T19:34:20;31.60;;;19.98;;
75890;SDS011;64571;47.512;19.054;2022-10-22T19:37:23;26.67;;;18.50;;
75890;SDS011;64571;47.512;19.054;2022-10-22T19:40:25;31.87;;;19.02;;
75890;SDS011;64571;47.512;19.054;2022-10-22T19:43:29;28.23;;;18.63;;
75890;SDS011;64571;47.512;19.054;2022-10-22T19:46:31;30.40;;;18.60;;
75890;SDS011;64571;47.512;19.054;2022-10-22T19:49:34;30.55;;;19.87;;
75890;SDS011;64571;47.512;19.054;2022-10-22T19:52:36;29.10;;;18.50;;
75890;SDS011;64571;47.512;19.054;2022-10-22T19:55:43;33.88;;;21.35;;
75890;SDS011;64571;47.512;19.054;2022-10-22T19:58:45;30.40;;;19.07;;
75890;SDS011;64571;47.512;19.054;2022-10-22T20:01:48;29.90;;;18.27;;
75890;SDS011;64571;47.512;19.054;2022-10-22T20:04:51;29.35;;;19.02;;
75890;SDS011;64571;47.512;19.054;2022-10-22T20:07:53;28.73;;;18.58;;
75890;SDS011;64571;47.512;19.054;2022-10-22T20:10:56;32.42;;;19.08;;
75890;SDS011;64571;47.512;19.054;2022-10-22T20:13:58;29.33;;;18.30;;
75890;SDS011;64571;47.512;19.054;2022-10-22T20:17:01;34.45;;;20.27;;
75890;SDS011;64571;47.512;19.054;2022-10-22T20:20:04;35.63;;;20.95;;
75890;SDS011;64571;47.512;19.054;2022-10-22T20:23:06;33.88;;;19.70;;
75890;SDS011;64571;47.512;19.054;2022-10-22T20:26:09;31.37;;;20.33;;
75890;SDS011;64571;47.512;19.054;2022-10-22T20:29:13;30.77;;;18.47;;
75890;SDS011;64571;47.512;19.054;2022-10-22T20:32:16;30.80;;;20.17;;
75890;SDS011;64571;47.512;19.054;2022-10-22T20:35:18;33.55;;;20.37;;
75890;SDS011;64571;47.512;19.054;2022-10-22T20:38:21;30.92;;;20.52;;
75890;SDS011;64571;47.512;19.054;2022-10-22T20:41:23;34.15;;;19.87;;
75890;SDS011;64571;47.512;19.054;2022-10-22T20:44:25;30.47;;;19.33;;
75890;SDS011;64571;47.512;19.054;2022-10-22T20:47:28;30.37;;;18.75;;
75890;SDS011;64571;47.512;19.054;2022-10-22T20:50:50;34.13;;;19.92;;
75890;SDS011;64571;47.512;19.054;2022-10-22T20:53:53;30.15;;;19.12;;
75890;SDS011;64571;47.512;19.054;2022-10-22T20:56:55;30.88;;;18.92;;
75890;SDS011;64571;47.512;19.054;2022-10-22T20:59:58;31.37;;;19.23;;
75890;SDS011;64571;47.512;19.054;2022-10-22T21:03:00;30.02;;;19.92;;
75890;SDS011;64571;47.512;19.054;2022-10-22T21:06:03;31.55;;;19.80;;
75890;SDS011;64571;47.512;19.054;2022-10-22T21:09:06;34.38;;;20.45;;
75890;SDS011;64571;47.512;19.054;2022-10-22T21:12:10;32.55;;;20.50;;
75890;SDS011;64571;47.512;19.054;2022-10-22T21:15:12;36.20;;;20.37;;
75890;SDS011;64571;47.512;19.054;2022-10-22T21:18:15;36.65;;;20.85;;
75890;SDS011;64571;47.512;19.054;2022-10-22T21:21:17;35.05;;;20.25;;
75890;SDS011;64571;47.512;19.054;2022-10-22T21:24:21;38.47;;;20.02;;
75890;SDS011;64571;47.512;19.054;2022-10-22T21:27:25;38.47;;;21.23;;
75890;SDS011;64571;47.512;19.054;2022-10-22T21:30:28;33.00;;;20.67;;
75890;SDS011;64571;47.512;19.054;2022-10-22T21:33:30;33.60;;;20.00;;
75890;SDS011;64571;47.512;19.054;2022-10-22T21:36:36;33.75;;;21.42;;
75890;SDS011;64571;47.512;19.054;2022-10-22T21:39:38;33.50;;;19.73;;
75890;SDS011;64571;47.512;19.054;2022-10-22T21:42:43;40.63;;;21.90;;
75890;SDS011;64571;47.512;19.054;2022-10-22T21:45:45;31.37;;;18.33;;
75890;SDS011;64571;47.512;19.054;2022-10-22T21:48:54;34.92;;;21.48;;
75890;SDS011;64571;47.512;19.054;2022-10-22T21:52:04;36.42;;;21.95;;
75890;SDS011;64571;47.512;19.054;2022-10-22T21:55:08;28.87;;;17.33;;
75890;SDS011;64571;47.512;19.054;2022-10-22T21:58:10;35.33;;;20.40;;
75890;SDS011;64571;47.512;19.054;2022-10-22T22:01:13;26.83;;;15.80;;
75890;SDS011;64571;47.512;19.054;2022-10-22T22:04:16;29.12;;;16.30;;
75890;SDS011;64571;47.512;19.054;2022-10-22T22:07:18;30.95;;;19.12;;
75890;SDS011;64571;47.512;19.054;2022-10-22T22:10:21;27.75;;;17.95;;
75890;SDS011;64571;47.512;19.054;2022-10-22T22:13:25;33.53;;;20.35;;
75890;SDS011;64571;47.512;19.054;2022-10-22T22:16:29;34.57;;;20.97;;
75890;SDS011;64571;47.512;19.054;2022-10-22T22:19:33;34.45;;;19.70;;
75890;SDS011;64571;47.512;19.054;2022-10-22T22:22:35;35.92;;;22.17;;
75890;SDS011;64571;47.512;19.054;2022-10-22T22:25:37;35.80;;;23.75;;
75890;SDS011;64571;47.512;19.054;2022-10-22T22:28:40;37.63;;;21.65;;
75890;SDS011;64571;47.512;19.054;2022-10-22T22:31:42;43.73;;;23.30;;
75890;SDS011;64571;47.512;19.054;2022-10-22T22:34:47;39.45;;;23.95;;
75890;SDS011;64571;47.512;19.054;2022-10-22T22:37:49;40.95;;;25.40;;
75890;SDS011;64571;47.512;19.054;2022-10-22T22:40:51;35.95;;;21.85;;
75890;SDS011;64571;47.512;19.054;2022-10-22T22:43:54;42.08;;;26.67;;
75890;SDS011;64571;47.512;19.054;2022-10-22T22:47:01;40.43;;;22.47;;
75890;SDS011;64571;47.512;19.054;2022-10-22T22:50:03;38.40;;;22.67;;
75890;SDS011;64571;47.512;19.054;2022-10-22T22:53:06;43.53;;;22.25;;
75890;SDS011;64571;47.512;19.054;2022-10-22T22:56:16;35.05;;;21.80;;
75890;SDS011;64571;47.512;19.054;2022-10-22T22:59:21;34.53;;;21.60;;
75890;SDS011;64571;47.512;19.054;2022-10-22T23:02:23;36.30;;;19.97;;
75890;SDS011;64571;47.512;19.054;2022-10-22T23:05:26;35.15;;;21.90;;
75890;SDS011;64571;47.512;19.054;2022-10-22T23:08:28;38.40;;;22.23;;
75890;SDS011;64571;47.512;19.054;2022-10-22T23:11:30;34.92;;;20.95;;
75890;SDS011;64571;47.512;19.054;2022-10-22T23:14:33;36.33;;;20.83;;
75890;SDS011;64571;47.512;19.054;2022-10-22T23:17:35;34.30;;;20.67;;
75890;SDS011;64571;47.512;19.054;2022-10-22T23:20:38;34.22;;;20.70;;
75890;SDS011;64571;47.512;19.054;2022-10-22T23:23:44;38.03;;;23.12;;
75890;SDS011;64571;47.512;19.054;2022-10-22T23:26:48;35.92;;;21.75;;
75890;SDS011;64571;47.512;19.054;2022-10-22T23:29:52;38.33;;;22.52;;
75890;SDS011;64571;47.512;19.054;2022-10-22T23:32:54;36.87;;;22.90;;
75890;SDS011;64571;47.512;19.054;2022-10-22T23:35:59;38.83;;;21.80;;
75890;SDS011;64571;47.512;19.054;2022-10-22T23:39:06;41.45;;;23.40;;
75890;SDS011;64571;47.512;19.054;2022-10-22T23:42:10;35.05;;;23.20;;
75890;SDS011;64571;47.512;19.054;2022-10-22T23:45:12;39.28;;;23.77;;
75890;SDS011;64571;47.512;19.054;2022-10-22T23:48:15;35.87;;;22.60;;
75890;SDS011;64571;47.512;19.054;2022-10-22T23:51:17;37.63;;;22.75;;
75890;SDS011;64571;47.512;19.054;2022-10-22T23:54:21;39.53;;;24.25;;
75890;SDS011;64571;47.512;19.054;2022-10-22T23:57:23;38.80;;;23.42;;
